createdAt,value
2018-08-13T00:02:21.220Z,99.90
2018-08-13T00:04:49.457Z,99.90
2018-08-13T00:07:17.718Z,99.90
2018-08-13T00:09:45.962Z,99.90
2018-08-13T00:12:14.219Z,99.90
2018-08-13T00:14:42.424Z,99.90
2018-08-13T00:17:10.688Z,99.90
2018-08-13T00:19:38.940Z,99.90
2018-08-13T00:22:07.180Z,99.90
2018-08-13T00:24:35.429Z,99.90
2018-08-13T00:27:03.864Z,99.90
2018-08-13T00:29:32.117Z,99.90
2018-08-13T00:32:00.473Z,99.90
2018-08-13T00:34:28.707Z,99.90
2018-08-13T00:36:57.017Z,99.90
2018-08-13T00:39:25.277Z,99.90
2018-08-13T00:41:53.518Z,99.90
2018-08-13T00:44:21.727Z,99.90
2018-08-13T00:46:49.935Z,99.90
2018-08-13T00:49:18.172Z,99.90
2018-08-13T00:51:46.400Z,99.90
2018-08-13T00:54:14.700Z,99.90
2018-08-13T00:56:42.908Z,99.90
2018-08-13T00:59:11.128Z,99.90
2018-08-13T01:01:39.327Z,99.90
2018-08-13T01:04:07.533Z,99.90
2018-08-13T01:06:35.917Z,99.90
2018-08-13T01:09:07.253Z,99.90
2018-08-13T01:11:35.514Z,99.90
2018-08-13T01:14:04.476Z,99.90
2018-08-13T01:16:33.280Z,99.90
2018-08-13T01:19:01.503Z,99.90
2018-08-13T01:21:29.855Z,99.90
2018-08-13T01:23:58.346Z,99.90
2018-08-13T01:26:26.623Z,99.90
2018-08-13T01:28:54.860Z,99.90
2018-08-13T01:31:23.100Z,99.90
2018-08-13T01:33:51.334Z,99.90
2018-08-13T01:36:19.590Z,99.90
2018-08-13T01:38:47.815Z,99.90
2018-08-13T01:41:15.996Z,99.90
2018-08-13T01:43:44.250Z,99.90
2018-08-13T01:46:12.479Z,99.90
2018-08-13T01:48:40.719Z,99.90
2018-08-13T01:51:08.920Z,99.90
2018-08-13T01:53:37.156Z,99.90
2018-08-13T01:56:05.367Z,99.90
2018-08-13T01:58:33.831Z,99.90
2018-08-13T02:01:02.223Z,99.90
2018-08-13T02:03:30.712Z,99.90
2018-08-13T02:05:59.124Z,99.90
2018-08-13T02:08:27.416Z,99.90
2018-08-13T02:10:55.711Z,99.90
2018-08-13T02:13:23.931Z,99.90
2018-08-13T02:15:52.278Z,99.90
2018-08-13T02:18:20.517Z,99.90
2018-08-13T02:20:48.743Z,99.90
2018-08-13T02:23:16.943Z,99.90
2018-08-13T02:25:45.148Z,99.90
2018-08-13T02:28:13.378Z,99.90
2018-08-13T02:30:41.631Z,99.90
2018-08-13T02:33:09.859Z,99.90
2018-08-13T02:35:38.100Z,99.90
2018-08-13T02:38:06.339Z,99.90
2018-08-13T02:40:34.635Z,99.90
2018-08-13T02:43:02.865Z,99.90
2018-08-13T02:45:31.184Z,99.90
2018-08-13T02:47:59.392Z,99.90
2018-08-13T02:50:27.695Z,99.90
2018-08-13T02:52:56.035Z,99.90
2018-08-13T02:55:24.266Z,99.90
2018-08-13T02:57:52.470Z,99.90
2018-08-13T03:00:21.331Z,99.90
2018-08-13T03:02:49.548Z,99.90
2018-08-13T03:05:17.776Z,99.90
2018-08-13T03:07:45.997Z,99.90
2018-08-13T03:10:14.204Z,99.90
2018-08-13T03:12:42.947Z,99.90
2018-08-13T03:15:13.355Z,99.90
2018-08-13T03:17:41.647Z,99.90
2018-08-13T03:20:10.030Z,99.90
2018-08-13T03:22:38.284Z,99.90
2018-08-13T03:25:08.032Z,99.90
2018-08-13T03:27:36.297Z,99.90
2018-08-13T03:30:07.856Z,99.90
2018-08-13T03:32:36.255Z,99.90
2018-08-13T03:35:04.936Z,99.90
2018-08-13T03:37:33.159Z,99.90
2018-08-13T03:40:01.454Z,99.90
2018-08-13T03:42:29.742Z,99.90
2018-08-13T03:44:58.045Z,99.90
2018-08-13T03:47:26.327Z,99.90
2018-08-13T03:49:54.592Z,99.90
2018-08-13T03:52:22.854Z,99.90
2018-08-13T03:54:51.114Z,99.90
2018-08-13T03:57:19.376Z,99.90
2018-08-13T03:59:47.573Z,99.90
2018-08-13T04:02:15.768Z,99.90
2018-08-13T04:04:44.010Z,99.90
2018-08-13T04:07:12.388Z,99.90
2018-08-13T04:09:43.261Z,99.90
2018-08-13T04:12:11.528Z,99.90
2018-08-13T04:14:39.780Z,99.90
2018-08-13T04:17:08.033Z,99.90
2018-08-13T04:19:36.282Z,99.90
2018-08-13T04:22:04.553Z,99.90
2018-08-13T04:24:33.384Z,99.90
2018-08-13T04:27:01.623Z,99.90
2018-08-13T04:29:29.928Z,99.90
2018-08-13T04:31:58.177Z,99.90
2018-08-13T04:34:26.431Z,99.90
2018-08-13T04:36:54.663Z,99.90
2018-08-13T04:39:22.925Z,99.90
2018-08-13T04:41:51.155Z,99.90
2018-08-13T04:44:19.379Z,99.90
2018-08-13T04:46:47.615Z,99.90
2018-08-13T04:49:15.832Z,99.90
2018-08-13T04:51:44.083Z,99.90
2018-08-13T04:54:12.322Z,99.90
2018-08-13T04:56:40.561Z,99.90
2018-08-13T04:59:08.821Z,99.90
2018-08-13T05:01:37.053Z,99.90
2018-08-13T05:04:05.359Z,99.90
2018-08-13T05:06:33.605Z,99.90
2018-08-13T05:09:01.871Z,99.90
2018-08-13T05:11:30.152Z,99.90
2018-08-13T05:13:58.439Z,99.90
2018-08-13T05:16:26.725Z,99.90
2018-08-13T05:18:55.214Z,99.90
2018-08-13T05:21:23.591Z,99.90
2018-08-13T05:23:51.740Z,99.90
2018-08-13T05:26:19.984Z,99.90
2018-08-13T05:28:48.269Z,99.90
2018-08-13T05:31:17.426Z,99.90
2018-08-13T05:33:45.638Z,99.90
2018-08-13T05:36:13.902Z,99.90
2018-08-13T05:38:42.223Z,99.90
2018-08-13T05:41:10.543Z,99.90
2018-08-13T05:43:38.770Z,99.90
2018-08-13T05:46:07.296Z,99.90
2018-08-13T05:48:35.843Z,99.90
2018-08-13T05:51:04.056Z,99.90
2018-08-13T05:53:32.349Z,99.90
2018-08-13T05:56:00.661Z,99.90
2018-08-13T05:58:29.157Z,99.90
2018-08-13T06:00:57.420Z,99.90
2018-08-13T06:03:25.668Z,99.90
2018-08-13T06:05:53.912Z,99.90
2018-08-13T06:08:22.170Z,99.90
2018-08-13T06:10:50.388Z,99.90
2018-08-13T06:13:18.604Z,99.90
2018-08-13T06:15:46.803Z,99.90
2018-08-13T06:18:15.142Z,99.90
2018-08-13T06:20:43.260Z,99.90
2018-08-13T06:23:11.498Z,99.90
2018-08-13T06:25:39.717Z,99.90
2018-08-13T06:28:08.001Z,99.90
2018-08-13T06:30:36.456Z,99.90
2018-08-13T06:33:04.750Z,99.90
2018-08-13T06:35:32.945Z,99.90
2018-08-13T06:38:01.267Z,99.90
2018-08-13T06:40:29.825Z,99.90
2018-08-13T06:42:58.117Z,99.90
2018-08-13T06:45:26.595Z,99.90
2018-08-13T06:47:54.881Z,99.90
2018-08-13T06:50:23.077Z,99.90
2018-08-13T06:52:51.307Z,99.90
2018-08-13T06:55:19.520Z,99.90
2018-08-13T06:57:47.752Z,99.90
2018-08-13T07:00:16.004Z,99.90
2018-08-13T07:02:44.224Z,99.90
2018-08-13T07:05:12.468Z,99.90
2018-08-13T07:07:41.299Z,99.90
2018-08-13T07:10:13.668Z,99.90
2018-08-13T07:12:45.134Z,99.90
2018-08-13T07:15:14.045Z,99.90
2018-08-13T07:17:42.304Z,99.90
2018-08-13T07:20:12.428Z,99.90
2018-08-13T07:22:40.696Z,99.90
2018-08-13T07:25:09.640Z,99.90
2018-08-13T07:27:38.123Z,99.90
2018-08-13T07:30:09.387Z,99.90
2018-08-13T07:32:37.641Z,99.90
2018-08-13T07:35:06.156Z,99.90
2018-08-13T07:37:34.416Z,99.90
2018-08-13T07:40:02.717Z,99.90
2018-08-13T07:42:31.552Z,99.90
2018-08-13T07:44:59.955Z,99.90
2018-08-13T07:47:28.628Z,99.90
2018-08-13T07:49:56.973Z,99.90
2018-08-13T07:52:25.263Z,99.90
2018-08-13T07:54:53.571Z,99.90
2018-08-13T07:57:21.803Z,99.90
2018-08-13T07:59:50.074Z,99.90
2018-08-13T08:02:18.323Z,99.90
2018-08-13T08:04:46.542Z,99.90
2018-08-13T08:07:14.759Z,99.90
2018-08-13T08:09:43.014Z,99.90
2018-08-13T08:12:11.200Z,99.90
2018-08-13T08:14:39.500Z,99.90
2018-08-13T08:17:07.691Z,99.90
2018-08-13T08:19:35.960Z,99.90
2018-08-13T08:22:04.226Z,99.90
2018-08-13T08:24:32.459Z,99.90
2018-08-13T08:27:00.739Z,99.90
2018-08-13T08:29:29.026Z,99.90
2018-08-13T08:31:57.327Z,99.90
2018-08-13T08:34:25.571Z,99.90
2018-08-13T08:36:53.795Z,99.90
2018-08-13T08:39:22.055Z,99.90
2018-08-13T08:41:50.301Z,99.90
2018-08-13T08:44:18.543Z,99.90
2018-08-13T08:46:46.788Z,99.90
2018-08-13T08:49:15.044Z,99.90
2018-08-13T08:51:43.373Z,99.90
2018-08-13T08:54:11.680Z,99.90
2018-08-13T08:56:39.888Z,99.90
2018-08-13T08:59:09.519Z,99.90
2018-08-13T09:01:38.021Z,99.90
2018-08-13T09:04:07.351Z,99.90
2018-08-13T09:06:36.147Z,99.90
2018-08-13T09:09:07.795Z,99.90
2018-08-13T09:11:36.063Z,99.90
2018-08-13T09:14:05.041Z,99.90
2018-08-13T09:16:33.286Z,99.90
2018-08-13T09:19:13.128Z,99.90
2018-08-13T09:21:41.323Z,99.90
2018-08-13T09:24:20.941Z,99.90
2018-08-13T09:27:00.816Z,99.90
2018-08-13T09:29:40.500Z,99.90
2018-08-13T09:32:24.267Z,99.90
2018-08-13T09:35:28.746Z,99.90
2018-08-13T09:37:57.658Z,99.50
2018-08-13T09:40:26.760Z,99.10
2018-08-13T09:42:55.288Z,99.10
2018-08-13T09:45:23.585Z,99.70
2018-08-13T09:47:51.881Z,99.80
2018-08-13T09:50:20.615Z,99.90
2018-08-13T09:52:49.383Z,99.80
2018-08-13T09:55:18.605Z,99.90
2018-08-13T09:57:47.749Z,99.90
2018-08-13T10:00:23.098Z,99.90
2018-08-13T10:02:51.300Z,99.60
2018-08-13T10:05:19.516Z,99.80
2018-08-13T10:07:47.935Z,99.30
2018-08-13T10:10:17.579Z,98.90
2018-08-13T10:12:46.271Z,98.50
2018-08-13T10:15:14.905Z,99.30
2018-08-13T10:17:43.150Z,98.30
2018-08-13T10:20:14.874Z,97.40
2018-08-13T10:22:43.128Z,97.90
2018-08-13T10:25:11.892Z,97.60
2018-08-13T10:27:40.365Z,97.30
2018-08-13T10:30:09.920Z,97.60
2018-08-13T10:32:38.612Z,96.90
2018-08-13T10:35:07.524Z,97.10
2018-08-13T10:37:36.096Z,96.50
2018-08-13T10:40:06.304Z,94.70
2018-08-13T10:42:34.813Z,94.40
2018-08-13T10:45:03.052Z,94.40
2018-08-13T10:47:31.341Z,94.80
2018-08-13T10:49:59.632Z,95.10
2018-08-13T10:52:27.923Z,94.70
2018-08-13T10:54:56.138Z,94.20
2018-08-13T10:57:24.845Z,94.30
2018-08-13T10:59:53.200Z,94.20
2018-08-13T11:02:21.466Z,92.70
2018-08-13T11:04:49.673Z,93.70
2018-08-13T11:07:17.935Z,92.30
2018-08-13T11:09:46.175Z,92.00
2018-08-13T11:12:14.422Z,91.90
2018-08-13T11:14:42.822Z,92.20
2018-08-13T11:17:11.088Z,90.40
2018-08-13T11:19:39.331Z,91.10
2018-08-13T11:22:07.589Z,91.60
2018-08-13T11:24:35.840Z,90.30
2018-08-13T11:27:04.328Z,90.70
2018-08-13T11:29:32.558Z,90.10
2018-08-13T11:32:00.829Z,91.70
2018-08-13T11:34:29.923Z,90.60
2018-08-13T11:36:58.180Z,90.50
2018-08-13T11:39:26.467Z,93.50
2018-08-13T11:41:54.705Z,93.70
2018-08-13T11:44:22.946Z,94.50
2018-08-13T11:46:51.239Z,94.70
2018-08-13T11:49:19.506Z,94.70
2018-08-13T11:51:47.732Z,94.00
2018-08-13T11:54:15.960Z,94.50
2018-08-13T11:56:45.399Z,94.40
2018-08-13T11:59:13.630Z,93.80
2018-08-13T12:01:41.900Z,93.00
2018-08-13T12:04:10.187Z,92.20
2018-08-13T12:06:38.436Z,92.00
2018-08-13T12:09:09.404Z,92.10
2018-08-13T12:11:37.632Z,91.60
2018-08-13T12:14:05.976Z,91.80
2018-08-13T12:16:34.311Z,93.10
2018-08-13T12:19:02.645Z,94.30
2018-08-13T12:21:31.091Z,94.90
2018-08-13T12:23:59.381Z,94.60
2018-08-13T12:26:27.708Z,95.10
2018-08-13T12:28:55.869Z,95.70
2018-08-13T12:31:24.135Z,96.90
2018-08-13T12:33:52.380Z,99.10
2018-08-13T12:36:20.615Z,99.90
2018-08-13T12:38:48.974Z,99.90
2018-08-13T12:41:17.204Z,99.90
2018-08-13T12:43:45.438Z,99.90
2018-08-13T12:46:13.787Z,99.90
2018-08-13T12:48:42.039Z,99.90
2018-08-13T12:51:10.357Z,98.70
2018-08-13T12:53:38.542Z,97.10
2018-08-13T12:56:06.741Z,97.50
2018-08-13T12:58:34.987Z,96.90
2018-08-13T13:01:10.390Z,96.20
2018-08-13T13:03:39.362Z,95.90
2018-08-13T13:06:07.626Z,95.20
2018-08-13T13:08:35.874Z,96.10
2018-08-13T13:11:04.152Z,96.90
2018-08-13T13:13:32.412Z,96.60
2018-08-13T13:16:00.702Z,96.20
2018-08-13T13:18:28.943Z,96.10
2018-08-13T13:20:57.203Z,96.80
2018-08-13T13:23:25.511Z,97.10
2018-08-13T13:25:53.765Z,97.50
2018-08-13T13:28:22.032Z,97.50
2018-08-13T13:30:50.540Z,97.60
2018-08-13T13:33:18.764Z,98.30
2018-08-13T13:35:46.981Z,98.50
2018-08-13T13:38:15.236Z,98.80
2018-08-13T13:40:43.462Z,98.90
2018-08-13T13:43:11.693Z,99.10
2018-08-13T13:45:39.900Z,99.90
2018-08-13T13:48:08.175Z,99.90
2018-08-13T13:50:36.438Z,99.90
2018-08-13T13:53:04.715Z,99.90
2018-08-13T13:55:33.700Z,99.90
2018-08-13T13:58:01.989Z,99.90
2018-08-13T14:00:30.232Z,99.90
2018-08-13T14:02:58.498Z,99.40
2018-08-13T14:05:26.829Z,98.90
2018-08-13T14:07:55.057Z,98.70
2018-08-13T14:10:23.421Z,99.00
2018-08-13T14:12:51.686Z,98.30
2018-08-13T14:15:21.158Z,98.40
2018-08-13T14:17:49.869Z,98.50
2018-08-13T14:20:18.299Z,97.60
2018-08-13T14:22:47.687Z,97.50
2018-08-13T14:25:16.031Z,97.80
2018-08-13T14:27:44.251Z,97.70
2018-08-13T14:30:22.256Z,98.40
2018-08-13T14:32:50.738Z,98.50
2018-08-13T14:35:20.651Z,98.40
2018-08-13T14:37:48.898Z,98.30
2018-08-13T14:40:17.124Z,98.90
2018-08-13T14:42:45.631Z,99.20
2018-08-13T14:45:15.124Z,99.20
2018-08-13T14:47:44.844Z,99.90
2018-08-13T14:50:13.451Z,99.70
2018-08-13T14:52:43.151Z,99.90
2018-08-13T14:55:11.689Z,99.90
2018-08-13T14:57:39.981Z,99.90
2018-08-13T15:00:14.179Z,99.90
2018-08-13T15:02:42.422Z,99.90
2018-08-13T15:05:10.705Z,99.90
2018-08-13T15:07:38.959Z,99.90
2018-08-13T15:10:10.080Z,99.90
2018-08-13T15:12:38.307Z,99.90
2018-08-13T15:15:08.865Z,99.90
2018-08-13T15:17:37.311Z,99.90
2018-08-13T15:20:06.303Z,99.90
2018-08-13T15:22:35.282Z,99.90
2018-08-13T15:25:03.869Z,99.90
2018-08-13T15:27:32.237Z,99.90
2018-08-13T15:30:00.312Z,99.90
2018-08-13T15:32:28.573Z,99.90
2018-08-13T15:34:56.848Z,99.90
2018-08-13T15:37:25.158Z,99.90
2018-08-13T15:39:53.562Z,99.90
2018-08-13T15:42:22.367Z,99.90
2018-08-13T15:44:50.623Z,99.90
2018-08-13T15:47:18.856Z,99.90
2018-08-13T15:49:47.116Z,99.90
2018-08-13T15:52:15.335Z,99.90
2018-08-13T15:54:43.570Z,99.90
2018-08-13T15:57:11.820Z,99.90
2018-08-13T15:59:40.037Z,99.90
2018-08-13T16:02:08.470Z,99.90
2018-08-13T16:04:36.726Z,99.90
2018-08-13T16:07:07.509Z,99.90
2018-08-13T16:09:35.781Z,99.90
2018-08-13T16:12:04.048Z,99.90
2018-08-13T16:14:32.988Z,99.90
2018-08-13T16:17:01.333Z,99.90
2018-08-13T16:19:29.642Z,99.90
2018-08-13T16:21:57.895Z,99.90
2018-08-13T16:24:26.170Z,99.90
2018-08-13T16:26:54.501Z,99.90
2018-08-13T16:29:22.751Z,99.90
2018-08-13T16:31:50.941Z,99.90
2018-08-13T16:34:19.232Z,99.90
2018-08-13T16:36:47.484Z,99.90
2018-08-13T16:39:15.776Z,99.90
2018-08-13T16:41:44.020Z,99.90
2018-08-13T16:44:12.301Z,99.90
2018-08-13T16:46:40.582Z,99.90
2018-08-13T16:49:08.859Z,99.90
2018-08-13T16:51:37.166Z,99.90
2018-08-13T16:54:05.452Z,99.90
2018-08-13T16:56:33.703Z,99.90
2018-08-13T16:59:02.016Z,99.90
2018-08-13T17:01:30.315Z,99.90
2018-08-13T17:03:58.581Z,99.90
2018-08-13T17:06:27.603Z,99.90
2018-08-13T17:08:55.978Z,99.90
2018-08-13T17:11:29.331Z,99.90
2018-08-13T17:13:57.675Z,99.90
2018-08-13T17:16:25.930Z,99.90
2018-08-13T17:18:54.198Z,99.90
2018-08-13T17:21:22.497Z,99.90
2018-08-13T17:23:50.748Z,99.90
2018-08-13T17:26:19.026Z,99.90
2018-08-13T17:28:47.292Z,99.90
2018-08-13T17:31:15.586Z,99.90
2018-08-13T17:33:43.842Z,99.90
2018-08-13T17:36:12.206Z,99.90
2018-08-13T17:38:40.493Z,99.90
2018-08-13T17:41:09.068Z,99.90
2018-08-13T17:43:37.358Z,99.90
2018-08-13T17:46:05.675Z,99.90
2018-08-13T17:48:34.490Z,99.90
2018-08-13T17:51:02.799Z,99.90
2018-08-13T17:53:31.154Z,99.90
2018-08-13T17:55:59.465Z,99.90
2018-08-13T17:58:27.834Z,99.90
2018-08-13T18:00:56.203Z,99.90
2018-08-13T18:03:24.502Z,99.90
2018-08-13T18:05:52.845Z,99.90
2018-08-13T18:08:21.128Z,99.90
2018-08-13T18:10:49.446Z,99.90
2018-08-13T18:13:17.862Z,99.90
2018-08-13T18:15:46.203Z,99.90
2018-08-13T18:18:14.535Z,99.90
2018-08-13T18:20:42.855Z,99.90
2018-08-13T18:23:12.529Z,99.90
2018-08-13T18:25:41.181Z,99.90
2018-08-13T18:28:09.530Z,99.90
2018-08-13T18:30:37.868Z,99.90
2018-08-13T18:33:06.893Z,99.90
2018-08-13T18:35:35.983Z,99.90
2018-08-13T18:38:04.315Z,99.90
2018-08-13T18:40:34.899Z,99.90
2018-08-13T18:43:03.619Z,99.90
2018-08-13T18:45:32.566Z,99.90
2018-08-13T18:48:01.666Z,99.90
2018-08-13T18:50:30.036Z,99.90
2018-08-13T18:52:58.887Z,99.90
2018-08-13T18:55:28.461Z,99.90
2018-08-13T18:57:57.179Z,99.90
2018-08-13T19:00:27.161Z,99.90
2018-08-13T19:02:56.223Z,99.90
2018-08-13T19:05:24.497Z,99.90
2018-08-13T19:07:52.996Z,99.90
2018-08-13T19:10:22.099Z,99.90
2018-08-13T19:12:50.457Z,99.90
2018-08-13T19:15:21.730Z,99.90
2018-08-13T19:17:50.569Z,99.90
2018-08-13T19:20:19.687Z,99.90
2018-08-13T19:22:48.349Z,99.90
2018-08-13T19:25:20.880Z,99.90
2018-08-13T19:27:49.841Z,99.90
2018-08-13T19:30:20.780Z,99.90
2018-08-13T19:32:50.429Z,99.90
2018-08-13T19:35:18.783Z,99.90
2018-08-13T19:37:48.018Z,99.90
2018-08-13T19:40:18.488Z,99.90
2018-08-13T19:42:50.942Z,99.90
2018-08-13T19:45:20.880Z,99.90
2018-08-13T19:47:49.857Z,99.90
2018-08-13T19:50:18.226Z,99.90
2018-08-13T19:52:47.674Z,99.90
2018-08-13T19:55:16.767Z,99.90
2018-08-13T19:57:45.408Z,99.90
2018-08-13T20:00:22.928Z,99.90
2018-08-13T20:02:51.882Z,99.90
2018-08-13T20:05:21.674Z,99.90
2018-08-13T20:07:50.184Z,99.90
2018-08-13T20:10:18.556Z,99.90
2018-08-13T20:12:48.405Z,99.90
2018-08-13T20:15:16.764Z,99.90
2018-08-13T20:17:45.380Z,99.90
2018-08-13T20:20:16.236Z,99.90
2018-08-13T20:22:45.442Z,99.90
2018-08-13T20:25:15.751Z,99.90
2018-08-13T20:27:44.653Z,99.90
2018-08-13T20:30:16.351Z,99.90
2018-08-13T20:32:45.922Z,99.90
2018-08-13T20:35:14.380Z,99.90
2018-08-13T20:37:43.647Z,99.90
2018-08-13T20:40:13.893Z,99.90
2018-08-13T20:42:42.681Z,99.90
2018-08-13T20:45:13.911Z,99.90
2018-08-13T20:47:42.554Z,99.90
2018-08-13T20:50:16.770Z,99.90
2018-08-13T20:52:45.651Z,99.90
2018-08-13T20:55:16.912Z,99.90
2018-08-13T20:57:46.116Z,99.90
2018-08-13T21:00:15.954Z,99.90
2018-08-13T21:02:45.649Z,99.90
2018-08-13T21:05:14.061Z,99.90
2018-08-13T21:07:42.756Z,99.90
2018-08-13T21:10:13.097Z,99.90
2018-08-13T21:12:41.409Z,99.90
2018-08-13T21:15:11.604Z,99.90
2018-08-13T21:17:39.981Z,99.90
2018-08-13T21:20:09.160Z,99.90
2018-08-13T21:22:37.951Z,99.90
2018-08-13T21:25:08.671Z,99.90
2018-08-13T21:27:36.945Z,99.90
2018-08-13T21:30:05.284Z,99.90
2018-08-13T21:32:33.674Z,99.90
2018-08-13T21:35:02.970Z,99.90
2018-08-13T21:37:31.346Z,99.90
2018-08-13T21:39:59.660Z,99.90
2018-08-13T21:42:27.951Z,99.90
2018-08-13T21:44:56.237Z,99.90
2018-08-13T21:47:24.571Z,99.90
2018-08-13T21:49:52.795Z,99.90
2018-08-13T21:52:21.076Z,99.90
2018-08-13T21:54:49.290Z,99.90
2018-08-13T21:57:17.534Z,99.90
2018-08-13T21:59:45.796Z,99.90
2018-08-13T22:02:14.479Z,99.90
2018-08-13T22:04:43.659Z,99.90
2018-08-13T22:07:12.074Z,99.90
2018-08-13T22:09:40.342Z,99.90
2018-08-13T22:12:14.082Z,99.90
2018-08-13T22:14:42.309Z,99.90
2018-08-13T22:17:10.552Z,99.90
2018-08-13T22:19:39.027Z,99.90
2018-08-13T22:22:07.366Z,99.90
2018-08-13T22:24:47.190Z,99.90
2018-08-13T22:27:15.432Z,99.90
2018-08-13T22:29:43.944Z,99.90
2018-08-13T22:32:12.551Z,99.90
2018-08-13T22:34:42.141Z,99.90
2018-08-13T22:37:10.939Z,99.90
2018-08-13T22:39:40.113Z,99.90
2018-08-13T22:42:08.515Z,99.90
2018-08-13T22:44:36.832Z,99.90
2018-08-13T22:47:05.100Z,99.90
2018-08-13T22:49:33.317Z,99.90
2018-08-13T22:52:01.549Z,99.90
2018-08-13T22:54:29.844Z,99.90
2018-08-13T22:56:58.511Z,99.90
2018-08-13T22:59:26.788Z,99.90
2018-08-13T23:01:55.048Z,99.90
2018-08-13T23:04:23.287Z,99.90
2018-08-13T23:06:51.548Z,99.90
2018-08-13T23:09:19.780Z,99.90
2018-08-13T23:11:47.999Z,99.90
2018-08-13T23:14:16.255Z,99.90
2018-08-13T23:16:44.477Z,99.90
2018-08-13T23:19:12.761Z,99.90
2018-08-13T23:21:41.051Z,99.90
2018-08-13T23:24:09.287Z,99.90
2018-08-13T23:26:37.520Z,99.90
2018-08-13T23:29:06.020Z,99.90
2018-08-13T23:31:34.244Z,99.90
2018-08-13T23:34:02.513Z,99.90
2018-08-13T23:36:30.768Z,99.90
2018-08-13T23:38:59.039Z,99.90
2018-08-13T23:41:27.296Z,99.90
2018-08-13T23:43:55.544Z,99.90
2018-08-13T23:46:23.768Z,99.90
2018-08-13T23:48:52.034Z,99.90
2018-08-13T23:51:20.289Z,99.90
2018-08-13T23:53:48.536Z,99.90
2018-08-13T23:56:16.837Z,99.90
2018-08-13T23:58:45.084Z,99.90
